Time;durP1;ratioP1;P1;durP2;ratioP2;P2;SDS_P1;SDS_P2;PMS_P1;PMS_P2;Temp;Humidity;BMP_temperature;BMP_pressure;BME280_temperature;BME280_humidity;BME280_pressure;Samples;Min_cycle;Max_cycle;Signal;HPM_P1;HPM_P2
2023/11/22 00:02:15;;;;;;;1999.90;999.90;;;;;;;10.24;64.11;102642.88;10415328;28;20062;-78
2023/11/22 00:07:17;;;;;;;1999.90;999.90;;;;;;;9.90;65.27;102624.56;10414590;28;20049;-77
2023/11/22 00:12:19;;;;;;;1999.90;999.90;;;;;;;9.93;66.52;102617.47;10415392;28;20503;-77
2023/11/22 00:17:23;;;;;;;1999.90;999.90;;;;;;;9.94;64.68;102602.66;10415090;28;20053;-77
2023/11/22 00:22:27;;;;;;;1999.90;999.90;;;;;;;10.00;64.38;102607.72;10415044;28;20096;-78
2023/11/22 00:27:31;;;;;;;1999.90;999.90;;;;;;;10.19;64.30;102611.56;10397533;28;20068;-77
2023/11/22 00:32:33;;;;;;;1999.90;999.90;;;;;;;9.86;64.94;102629.00;10415194;28;20054;-77
2023/11/22 00:37:36;;;;;;;1999.90;999.90;;;;;;;9.97;66.03;102640.06;10414049;28;20528;-77
2023/11/22 00:42:39;;;;;;;1999.90;999.90;;;;;;;10.01;64.79;102646.94;10415207;28;20373;-77
2023/11/22 00:47:42;;;;;;;1999.90;999.90;;;;;;;9.71;64.12;102647.69;10414809;28;20049;-77
2023/11/22 00:52:48;;;;;;;1999.90;999.90;;;;;;;9.79;64.94;102653.59;10414369;28;20112;-77
2023/11/22 00:57:50;;;;;;;1999.90;999.90;;;;;;;9.72;66.60;102660.75;10397147;28;20077;-77
2023/11/22 01:02:52;;;;;;;1999.90;999.90;;;;;;;10.31;63.49;102654.88;10397026;28;20049;-77
2023/11/22 01:07:55;;;;;;;1999.90;999.90;;;;;;;9.42;65.36;102673.63;10380685;28;20391;-77
2023/11/22 01:12:57;;;;;;;1999.90;999.90;;;;;;;10.15;64.98;102671.88;10416617;28;20046;-77
2023/11/22 01:18:00;;;;;;;1999.90;999.90;;;;;;;10.10;63.86;102676.38;10404183;28;20050;-77
2023/11/22 01:23:03;;;;;;;1999.90;999.90;;;;;;;9.30;66.04;102687.84;10422173;28;20468;-77
2023/11/22 01:28:06;;;;;;;1999.90;999.90;;;;;;;9.95;64.13;102691.59;10421478;28;20053;-77
2023/11/22 01:33:09;;;;;;;1999.90;999.90;;;;;;;9.67;65.64;102712.31;10421647;28;20054;-77
2023/11/22 01:38:11;;;;;;;1999.90;999.90;;;;;;;9.87;64.27;102717.06;10421170;28;20050;-77
2023/11/22 01:43:16;;;;;;;1999.90;999.90;;;;;;;10.00;65.24;102712.38;10420222;28;20061;-77
2023/11/22 01:48:18;;;;;;;1999.90;999.90;;;;;;;10.21;63.88;102731.94;10387039;28;20045;-78
2023/11/22 01:53:21;;;;;;;1999.90;999.90;;;;;;;9.97;64.90;102729.03;10420507;28;20419;-77
2023/11/22 01:58:24;;;;;;;1999.90;999.90;;;;;;;9.55;64.68;102723.91;10386570;28;20554;-77
2023/11/22 02:03:26;;;;;;;1999.90;999.90;;;;;;;9.22;64.43;102733.34;10402558;28;20054;-78
2023/11/22 02:08:29;;;;;;;1999.90;999.90;;;;;;;9.83;63.81;102729.38;10402629;28;20045;-77
2023/11/22 02:13:31;;;;;;;1999.90;999.90;;;;;;;9.63;64.09;102711.53;10418528;28;20492;-77
2023/11/22 02:18:34;;;;;;;1999.90;999.90;;;;;;;9.71;63.05;102713.94;10402219;28;20045;-77
2023/11/22 02:23:37;;;;;;;1999.90;999.90;;;;;;;9.60;64.14;102716.81;10401528;28;20050;-77
2023/11/22 02:28:39;;;;;;;1999.90;999.90;;;;;;;9.90;62.44;102717.00;10419170;28;20052;-77
2023/11/22 02:33:42;;;;;;;1999.90;999.90;;;;;;;8.99;65.14;102737.25;10401311;28;20057;-77
2023/11/22 02:38:45;;;;;;;1999.90;999.90;;;;;;;9.45;64.41;102736.31;10401741;28;20047;-77
2023/11/22 02:43:48;;;;;;;1999.90;999.90;;;;;;;9.17;64.22;102743.88;10418748;28;20128;-78
2023/11/22 02:48:50;;;;;;;1999.90;999.90;;;;;;;9.30;64.95;102737.50;10384805;28;20045;-78
2023/11/22 02:53:55;;;;;;;1999.90;999.90;;;;;;;9.60;63.80;102732.50;10375810;28;20057;-77
2023/11/22 02:58:57;;;;;;;1999.90;999.90;;;;;;;9.59;64.12;102737.78;10377347;28;20536;-77
2023/11/22 03:04:00;;;;;;;1999.90;999.90;;;;;;;9.32;63.56;102727.00;10377102;28;20076;-77
2023/11/22 03:09:04;;;;;;;1999.90;999.90;;;;;;;9.64;63.31;102728.91;10375470;28;20107;-77
2023/11/22 03:14:06;;;;;;;1999.90;999.90;;;;;;;9.51;63.58;102731.84;10375228;28;20398;-78
2023/11/22 03:19:10;;;;;;;1999.90;999.90;;;;;;;9.70;63.52;102737.50;10376303;28;20042;-77
2023/11/22 03:24:12;;;;;;;1999.90;999.90;;;;;;;8.84;63.64;102732.34;10376142;28;20057;-77
2023/11/22 03:29:18;;;;;;;1999.90;999.90;;;;;;;8.85;64.77;102739.28;10375968;28;20046;-77
2023/11/22 03:34:21;;;;;;;1999.90;999.90;;;;;;;9.37;64.60;102740.00;10375434;28;20049;-77
2023/11/22 03:39:23;;;;;;;1999.90;999.90;;;;;;;9.06;64.32;102743.22;10374314;28;20092;-77
2023/11/22 03:44:25;;;;;;;1999.90;999.90;;;;;;;8.64;65.02;102769.25;10374537;28;20056;-77
2023/11/22 03:49:28;;;;;;;1999.90;999.90;;;;;;;8.77;64.42;102782.97;10374121;28;20481;-77
2023/11/22 03:54:30;;;;;;;1999.90;999.90;;;;;;;8.96;63.69;102813.09;10406695;28;20081;-77
2023/11/22 03:59:34;;;;;;;1999.90;999.90;;;;;;;8.05;65.30;102819.75;10415553;28;20046;-77
2023/11/22 04:04:39;;;;;;;1999.90;999.90;;;;;;;9.59;63.58;102829.31;10398129;28;20107;-77
2023/11/22 04:09:42;;;;;;;1999.90;999.90;;;;;;;8.61;64.48;102837.19;10398490;28;20055;-77
2023/11/22 04:14:45;;;;;;;1999.90;999.90;;;;;;;9.21;63.42;102842.25;10415319;28;20088;-77
2023/11/22 04:19:48;;;;;;;1999.90;999.90;;;;;;;8.54;64.32;102837.31;10415411;28;20056;-77
2023/11/22 04:24:50;;;;;;;1999.90;999.90;;;;;;;9.06;63.90;102847.75;10415206;28;20111;-77
2023/11/22 04:29:52;;;;;;;1999.90;999.90;;;;;;;8.90;62.36;102842.78;10397398;28;20077;-77
2023/11/22 04:34:55;;;;;;;1999.90;999.90;;;;;;;8.39;64.49;102842.75;10415104;28;20057;-77
2023/11/22 04:39:58;;;;;;;1999.90;999.90;;;;;;;8.79;64.45;102842.13;10414754;28;20099;-77
2023/11/22 04:45:01;;;;;;;1999.90;999.90;;;;;;;8.14;64.59;102840.50;10397227;28;20416;-76
2023/11/22 04:50:04;;;;;;;1999.90;999.90;;;;;;;8.49;62.90;102835.66;10422206;28;20128;-76
2023/11/22 04:55:07;;;;;;;1999.90;999.90;;;;;;;8.35;63.03;102833.22;10422958;28;20103;-77
2023/11/22 05:00:10;;;;;;;1999.90;999.90;;;;;;;8.68;62.15;102839.69;10422918;28;20049;-76
2023/11/22 05:05:12;;;;;;;1999.90;999.90;;;;;;;8.57;62.59;102843.38;10422337;28;20397;-77
2023/11/22 05:10:17;;;;;;;1999.90;999.90;;;;;;;8.70;63.17;102850.13;10422316;28;20057;-76
2023/11/22 05:15:19;;;;;;;1999.90;999.90;;;;;;;8.11;62.58;102858.81;10422189;28;20053;-76
2023/11/22 05:20:21;;;;;;;1999.90;999.90;;;;;;;8.21;63.29;102848.25;10421983;28;20060;-76
2023/11/22 05:25:24;;;;;;;1999.90;999.90;;;;;;;7.84;63.86;102849.63;10387937;28;20049;-76
2023/11/22 05:30:26;;;;;;;1999.90;999.90;;;;;;;8.17;64.31;102843.06;10403983;28;20049;-76
2023/11/22 05:35:29;;;;;;;1999.90;999.90;;;;;;;7.97;63.90;102827.69;10421414;28;20045;-76
2023/11/22 05:40:31;;;;;;;1999.90;999.90;;;;;;;7.91;65.13;102826.94;10421111;28;20124;-76
2023/11/22 05:45:34;;;;;;;1999.90;999.90;;;;;;;7.78;65.73;102834.03;10421481;28;20054;-76
2023/11/22 05:50:37;;;;;;;1999.90;999.90;;;;;;;8.64;63.16;102845.88;10420643;28;20053;-76
2023/11/22 05:55:39;;;;;;;1999.90;999.90;;;;;;;8.41;62.97;102855.78;10418151;28;20068;-76
2023/11/22 06:00:45;;;;;;;1999.90;999.90;;;;;;;8.61;64.29;102848.53;10402004;28;20050;-76
2023/11/22 06:05:47;;;;;;;1999.90;999.90;;;;;;;8.44;65.15;102867.06;10386548;28;20064;-75
2023/11/22 06:10:51;;;;;;;1999.90;999.90;;;;;;;9.00;63.44;102889.69;10402993;28;20087;-76
2023/11/22 06:15:53;;;;;;;1999.90;999.90;;;;;;;9.29;61.88;102886.53;10402740;28;20051;-76
2023/11/22 06:20:59;;;;;;;1999.90;999.90;;;;;;;9.13;62.70;102882.47;10402171;28;20099;-75
2023/11/22 06:26:02;;;;;;;1999.90;999.90;;;;;;;8.77;64.32;102888.28;10385506;28;20063;-76
2023/11/22 06:31:04;;;;;;;1999.90;999.90;;;;;;;8.49;64.74;102893.09;10402153;28;20124;-76
2023/11/22 06:36:09;;;;;;;1999.90;999.90;;;;;;;9.51;61.94;102891.34;10417807;28;20528;-76
2023/11/22 06:41:11;;;;;;;1999.90;999.90;;;;;;;9.27;63.19;102897.00;10418608;28;20057;-76
2023/11/22 06:46:16;;;;;;;1999.90;999.90;;;;;;;8.71;65.21;102898.88;10419236;28;20103;-76
2023/11/22 06:51:18;;;;;;;1999.90;999.90;;;;;;;8.98;65.06;102920.16;10401555;28;20081;-76
2023/11/22 06:56:21;;;;;;;1999.90;999.90;;;;;;;9.29;63.15;102933.56;10401675;28;20481;-76
2023/11/22 07:01:27;;;;;;;1999.90;999.90;;;;;;;8.76;64.58;102937.94;10418193;28;20485;-76
2023/11/22 07:06:29;;;;;;;1999.90;999.90;;;;;;;8.74;65.10;102910.13;10401365;28;20053;-77
2023/11/22 07:11:31;;;;;;;1999.90;999.90;;;;;;;8.74;64.67;102894.44;10417053;28;20133;-76
2023/11/22 07:16:34;;;;;;;1999.90;999.90;;;;;;;8.84;65.14;102912.56;10417895;28;20053;-77
2023/11/22 07:21:38;;;;;;;1999.90;999.90;;;;;;;9.19;64.10;102898.91;10417726;28;20061;-77
2023/11/22 07:26:40;;;;;;;1999.90;999.90;;;;;;;9.72;64.61;102883.09;10417535;28;20076;-77
2023/11/22 07:31:42;;;;;;;1999.90;999.90;;;;;;;9.25;65.64;102888.34;10415618;28;20488;-77
2023/11/22 07:36:45;;;;;;;1999.90;999.90;;;;;;;9.62;65.07;102890.25;10399716;28;20111;-77
2023/11/22 07:41:48;;;;;;;1999.90;999.90;;;;;;;9.90;64.74;102904.50;10399004;28;20053;-77
2023/11/22 07:46:51;;;;;;;1999.90;999.90;;;;;;;10.39;63.29;102896.50;10416208;28;20404;-77
2023/11/22 07:51:54;;;;;;;1999.90;999.90;;;;;;;9.89;64.04;102913.28;10415948;28;20053;-77
2023/11/22 07:56:56;;;;;;;1999.90;999.90;;;;;;;9.96;65.23;102925.31;10398349;28;20116;-77
2023/11/22 08:02:01;;;;;;;1999.90;999.90;;;;;;;10.44;63.84;102937.41;10398584;28;20103;-77
2023/11/22 08:07:04;;;;;;;1999.90;999.90;;;;;;;10.25;65.70;102939.53;10399060;28;20049;-78
2023/11/22 08:12:07;;;;;;;1999.90;999.90;;;;;;;10.38;64.92;102931.41;10414615;28;20049;-78
2023/11/22 08:17:11;;;;;;;1999.90;999.90;;;;;;;10.44;65.79;102930.44;10381526;28;20045;-78
2023/11/22 08:22:14;;;;;;;1999.90;999.90;;;;;;;10.33;67.49;102945.50;10415029;28;20504;-78
2023/11/22 08:27:17;;;;;;;1999.90;999.90;;;;;;;10.66;66.35;102951.75;10415020;28;20402;-78
2023/11/22 08:32:23;;;;;;;1999.90;999.90;;;;;;;10.22;67.00;102964.91;10415126;28;20132;-78
2023/11/22 08:37:25;;;;;;;1999.90;999.90;;;;;;;10.55;67.05;102957.22;10398037;28;20050;-77
2023/11/22 08:42:28;;;;;;;1999.90;999.90;;;;;;;11.04;66.05;102978.78;10413777;28;20408;-76
2023/11/22 08:47:31;;;;;;;1999.90;999.90;;;;;;;10.04;68.16;102976.63;10414726;28;20128;-76
2023/11/22 08:52:34;;;;;;;1999.90;999.90;;;;;;;10.21;67.37;102976.25;10397377;28;20104;-76
2023/11/22 08:57:37;;;;;;;1999.90;999.90;;;;;;;10.64;68.89;102971.00;10397167;28;20397;-75
2023/11/22 09:02:40;;;;;;;1999.90;999.90;;;;;;;10.55;66.80;102967.69;10397073;28;20132;-76
2023/11/22 09:07:44;;;;;;;1999.90;999.90;;;;;;;11.78;66.60;102982.09;10380999;28;20073;-75
2023/11/22 09:12:47;;;;;;;1999.90;999.90;;;;;;;11.37;66.48;102976.22;10414269;28;20053;-76
2023/11/22 09:17:52;;;;;;;1999.90;999.90;;;;;;;11.33;66.27;102975.44;10397090;28;20051;-76
2023/11/22 09:22:55;;;;;;;1999.90;999.90;;;;;;;12.23;66.00;102973.84;10397446;28;20049;-75
2023/11/22 09:28:01;;;;;;;1999.90;999.90;;;;;;;11.67;65.11;102974.53;10396878;28;20063;-75
2023/11/22 09:33:05;;;;;;;1999.90;999.90;;;;;;;11.55;66.54;102985.38;10398024;28;20059;-75
2023/11/22 09:38:11;;;;;;;1999.90;999.90;;;;;;;12.04;66.26;102984.03;10403989;28;20440;-76
2023/11/22 09:43:18;;;;;;;1999.90;999.90;;;;;;;12.01;66.59;102978.88;10404109;28;20485;-76
2023/11/22 09:48:23;;;;;;;1999.90;999.90;;;;;;;12.15;65.13;102978.47;10403443;28;20055;-75
2023/11/22 09:53:45;;;;;;;1999.90;999.90;;;;;;;11.91;65.65;102956.41;10420448;28;20053;-75
2023/11/22 09:58:51;;;;;;;1999.90;999.90;;;;;;;12.36;64.65;102963.00;10403010;28;20052;-75
2023/11/22 10:03:54;;;;;;;1999.90;999.90;;;;;;;11.44;66.60;102976.91;10402883;28;20059;-75
2023/11/22 10:08:56;;;;;;;1999.90;999.90;;;;;;;11.43;65.50;102980.44;10398102;22;20058;-75
2023/11/22 10:13:59;;;;;;;1999.90;999.90;;;;;;;11.07;66.17;102965.59;10379030;28;20064;-75
2023/11/22 10:19:01;;;;;;;1999.90;999.90;;;;;;;11.18;66.89;102973.22;10361599;28;20046;-76
2023/11/22 10:24:04;;;;;;;1999.90;999.90;;;;;;;11.08;67.77;102988.31;10361269;28;20057;-75
2023/11/22 10:29:08;;;;;;;1999.90;999.90;;;;;;;11.10;67.18;102969.91;10361122;28;20511;-76
2023/11/22 10:34:11;;;;;;;1999.90;999.90;;;;;;;11.84;65.55;102970.59;10378689;28;20125;-75
2023/11/22 10:39:16;;;;;;;1999.90;999.90;;;;;;;11.98;64.31;102978.94;10344955;28;20137;-75
2023/11/22 10:44:21;;;;;;;1999.90;999.90;;;;;;;12.58;65.03;102964.03;10360819;28;20513;-76
2023/11/22 10:49:24;;;;;;;1999.90;999.90;;;;;;;11.38;66.58;102954.34;10377622;28;20072;-75
2023/11/22 10:54:26;;;;;;;1999.90;999.90;;;;;;;10.62;67.36;102923.88;10377691;28;20132;-76
2023/11/22 10:59:30;;;;;;;1999.90;999.90;;;;;;;11.12;67.23;102921.78;10343477;28;20396;-76
2023/11/22 11:04:46;;;;;;;1999.90;999.90;;;;;;;11.48;67.02;102905.97;10359852;28;20081;-76
2023/11/22 11:09:50;;;;;;;1999.90;999.90;;;;;;;12.66;64.57;102903.38;10359340;28;20049;-76
2023/11/22 11:14:53;;;;;;;1999.90;999.90;;;;;;;11.84;66.59;102907.59;10376724;28;20054;-75
2023/11/22 11:19:58;;;;;;;1999.90;999.90;;;;;;;12.73;63.39;102904.03;10376350;28;20500;-76
2023/11/22 11:25:04;;;;;;;1999.90;999.90;;;;;;;13.07;62.81;102903.72;10376437;28;20133;-75
2023/11/22 11:30:40;;;;;;;1999.90;999.90;;;;;;;12.87;62.32;102920.19;10359324;28;20045;-75
2023/11/22 11:35:46;;;;;;;1999.90;999.90;;;;;;;12.30;63.51;102881.75;10355360;28;20080;-76
2023/11/22 11:40:50;;;;;;;1999.90;999.90;;;;;;;12.08;63.86;102848.28;10375571;28;20524;-76
2023/11/22 11:45:54;;;;;;;1999.90;999.90;;;;;;;11.43;64.89;102820.44;10375450;28;20050;-75
2023/11/22 11:50:56;;;;;;;1999.90;999.90;;;;;;;11.11;65.22;102812.59;10341785;28;20468;-75
2023/11/22 11:55:59;;;;;;;1999.90;999.90;;;;;;;12.55;63.23;102800.38;10374459;28;20060;-76
2023/11/22 12:01:02;;;;;;;1999.90;999.90;;;;;;;11.74;64.32;102806.44;10357784;28;20046;-75
2023/11/22 12:06:06;;;;;;;1999.90;999.90;;;;;;;11.59;62.89;102798.09;10374747;28;20136;-76
2023/11/22 12:11:10;;;;;;;1999.90;999.90;;;;;;;12.20;62.75;102792.72;10357682;28;20060;-75
2023/11/22 12:16:14;;;;;;;1999.90;999.90;;;;;;;12.77;61.44;102777.69;10374822;28;20058;-76
2023/11/22 12:21:19;;;;;;;1999.90;999.90;;;;;;;12.75;62.24;102776.03;10357306;28;20058;-75
2023/11/22 12:26:21;;;;;;;1999.90;999.90;;;;;;;12.77;59.80;102798.72;10357087;28;20053;-75
2023/11/22 12:31:24;;;;;;;1999.90;999.90;;;;;;;12.27;58.97;102810.03;10356763;28;20069;-75
2023/11/22 12:36:27;;;;;;;1999.90;999.90;;;;;;;13.93;58.24;102803.22;10356966;28;20049;-76
2023/11/22 12:41:30;;;;;;;1999.90;999.90;;;;;;;13.09;58.20;102782.72;10374065;28;20482;-75
2023/11/22 12:46:59;;;;;;;1999.90;999.90;;;;;;;13.12;59.25;102790.50;10356821;28;20058;-75
2023/11/22 12:52:02;;;;;;;1999.90;999.90;;;;;;;12.51;61.88;102794.38;10373930;28;20050;-76
2023/11/22 12:57:12;;;;;;;1999.90;999.90;;;;;;;13.29;59.11;102789.88;10373985;28;20108;-76
2023/11/22 13:02:16;;;;;;;1999.90;999.90;;;;;;;12.48;60.10;102769.97;10356533;28;20046;-76
2023/11/22 13:07:19;;;;;;;1999.90;999.90;;;;;;;13.26;59.92;102772.41;10375056;28;20058;-75
2023/11/22 13:12:22;;;;;;;1999.90;999.90;;;;;;;13.46;58.29;102787.50;10363986;28;20133;-76
2023/11/22 13:17:24;;;;;;;1999.90;999.90;;;;;;;13.39;58.92;102767.59;10363776;28;20046;-75
2023/11/22 13:22:27;;;;;;;1999.90;999.90;;;;;;;12.95;58.38;102749.03;10380891;28;20451;-76
2023/11/22 13:27:30;;;;;;;1999.90;999.90;;;;;;;13.07;59.35;102739.84;10380872;28;20077;-76
2023/11/22 13:32:32;;;;;;;1999.90;999.90;;;;;;;12.96;59.82;102740.22;10380755;28;20048;-76
2023/11/22 13:37:35;;;;;;;1999.90;999.90;;;;;;;13.01;59.57;102730.38;10363023;28;20054;-76
2023/11/22 13:42:37;;;;;;;1999.90;999.90;;;;;;;12.96;59.11;102727.94;10380271;28;20052;-76
2023/11/22 13:47:40;;;;;;;1999.90;999.90;;;;;;;12.83;59.78;102722.28;10362757;28;20077;-74
2023/11/22 13:52:42;;;;;;;1999.90;999.90;;;;;;;12.35;61.62;102716.97;10362425;28;20050;-76
2023/11/22 13:57:45;;;;;;;1999.90;999.90;;;;;;;12.70;61.60;102720.16;10379778;28;20064;-76
2023/11/22 14:02:48;;;;;;;1999.90;999.90;;;;;;;12.86;60.93;102712.56;10362187;28;20045;-76
2023/11/22 14:07:51;;;;;;;1999.90;999.90;;;;;;;12.03;60.95;102714.50;10361854;28;20068;-76
2023/11/22 14:12:54;;;;;;;1999.90;999.90;;;;;;;12.52;62.92;102727.75;10379173;28;20120;-76
2023/11/22 14:17:56;;;;;;;1999.90;999.90;;;;;;;12.95;61.54;102717.50;10361365;28;20054;-75
2023/11/22 14:22:59;;;;;;;1999.90;999.90;;;;;;;11.97;62.22;102735.75;10360784;28;20050;-75
2023/11/22 14:28:01;;;;;;;1999.90;999.90;;;;;;;12.07;61.15;102724.03;10378510;28;20054;-75
2023/11/22 14:33:08;;;;;;;1999.90;999.90;;;;;;;12.72;60.51;102713.91;10360987;28;20058;-76
2023/11/22 14:38:11;;;;;;;1999.90;999.90;;;;;;;12.99;61.45;102719.06;10360702;28;20053;-76
2023/11/22 14:43:14;;;;;;;1999.90;999.90;;;;;;;13.06;59.77;102723.19;10360586;28;20412;-76
2023/11/22 14:48:16;;;;;;;1999.90;999.90;;;;;;;13.19;60.20;102703.41;10360335;28;20049;-76
2023/11/22 14:53:20;;;;;;;1999.90;999.90;;;;;;;12.76;61.61;102691.88;10377391;28;20088;-75
2023/11/22 14:58:22;;;;;;;1999.90;999.90;;;;;;;12.33;62.13;102701.28;10359912;28;20050;-76
2023/11/22 15:03:28;;;;;;;1999.90;999.90;;;;;;;12.68;61.12;102709.69;10359422;28;20484;-76
2023/11/22 15:08:32;;;;;;;1999.90;999.90;;;;;;;12.01;62.60;102694.50;10377303;28;20109;-76
2023/11/22 15:13:36;;;;;;;1999.90;999.90;;;;;;;12.78;61.87;102689.19;10376645;28;20050;-76
2023/11/22 15:18:39;;;;;;;1999.90;999.90;;;;;;;11.89;63.24;102716.72;10376458;28;20085;-76
2023/11/22 15:23:42;;;;;;;1999.90;999.90;;;;;;;12.42;63.59;102703.59;10376436;28;20050;-76
2023/11/22 15:28:46;;;;;;;1999.90;999.90;;;;;;;12.47;63.66;102700.78;10358628;28;20046;-76
2023/11/22 15:33:49;;;;;;;1999.90;999.90;;;;;;;12.53;64.46;102708.47;10358187;28;20049;-76
2023/11/22 15:38:51;;;;;;;1999.90;999.90;;;;;;;11.64;65.36;102719.25;10358378;28;20056;-76
2023/11/22 15:43:53;;;;;;;1999.90;999.90;;;;;;;11.81;66.19;102727.44;10358455;28;20054;-75
2023/11/22 15:48:56;;;;;;;1999.90;999.90;;;;;;;11.90;65.93;102734.16;10375374;28;20386;-76
2023/11/22 15:53:58;;;;;;;1999.90;999.90;;;;;;;11.87;66.36;102718.53;10375525;28;20132;-76
2023/11/22 15:59:01;;;;;;;1999.90;999.90;;;;;;;12.39;64.94;102689.69;10357803;28;20078;-76
2023/11/22 16:04:05;;;;;;;1999.90;999.90;;;;;;;11.72;66.42;102683.16;10357647;28;20137;-76
2023/11/22 16:09:10;;;;;;;1999.90;999.90;;;;;;;11.51;66.31;102680.28;10375057;28;20100;-76
2023/11/22 16:14:14;;;;;;;1999.90;999.90;;;;;;;11.11;67.21;102668.41;10374702;28;20057;-77
2023/11/22 16:19:17;;;;;;;1999.90;999.90;;;;;;;11.59;66.17;102677.41;10341574;28;20050;-76
2023/11/22 16:24:19;;;;;;;1999.90;999.90;;;;;;;11.01;67.41;102664.34;10374879;28;20058;-76
2023/11/22 16:29:22;;;;;;;1999.90;999.90;;;;;;;11.65;66.55;102655.38;10341227;28;20058;-76
2023/11/22 16:34:25;;;;;;;1999.90;999.90;;;;;;;11.60;67.80;102637.16;10356830;28;20504;-77
2023/11/22 16:39:30;;;;;;;1999.90;999.90;;;;;;;11.97;65.72;102629.84;10373881;28;20397;-77
2023/11/22 16:44:32;;;;;;;1999.90;999.90;;;;;;;11.41;64.85;102623.75;10379639;28;20069;-77
2023/11/22 16:49:42;;;;;;;1999.90;999.90;;;;;;;11.62;66.76;102627.47;10348692;28;20046;-76
2023/11/22 16:54:45;;;;;;;1999.90;999.90;;;;;;;11.73;65.49;102624.50;10364958;28;20050;-76
2023/11/22 16:59:48;;;;;;;1999.90;999.90;;;;;;;11.33;66.40;102610.91;10381887;28;20042;-76
2023/11/22 17:04:53;;;;;;;1999.90;999.90;;;;;;;12.07;64.63;102616.38;10381888;28;20057;-76
2023/11/22 17:09:56;;;;;;;1999.90;999.90;;;;;;;11.27;65.84;102624.22;10364377;28;20073;-76
2023/11/22 17:14:58;;;;;;;1999.90;999.90;;;;;;;11.33;67.21;102636.25;10381356;28;20054;-76
2023/11/22 17:20:07;;;;;;;1999.90;999.90;;;;;;;12.19;64.58;102612.47;10347886;28;20060;-76
2023/11/22 17:25:13;;;;;;;1999.90;999.90;;;;;;;11.44;65.45;102593.97;10363491;28;20565;-76
2023/11/22 17:30:15;;;;;;;1999.90;999.90;;;;;;;11.17;66.40;102600.97;10380871;28;20050;-77
2023/11/22 17:35:17;;;;;;;1999.90;999.90;;;;;;;11.47;66.39;102583.38;10363173;28;20058;-77
2023/11/22 17:40:20;;;;;;;1999.90;999.90;;;;;;;11.42;65.76;102588.78;10380276;28;20479;-76
2023/11/22 17:45:23;;;;;;;1999.90;999.90;;;;;;;11.41;65.67;102583.56;10380572;28;20106;-76
2023/11/22 17:50:25;;;;;;;1999.90;999.90;;;;;;;11.55;65.85;102588.38;10379988;28;20473;-77
2023/11/22 17:55:28;;;;;;;1999.90;999.90;;;;;;;11.05;68.84;102589.94;10378791;28;20504;-76
2023/11/22 18:00:30;;;;;;;1999.90;999.90;;;;;;;11.14;66.91;102584.41;10362107;28;20128;-77
2023/11/22 18:05:33;;;;;;;1999.90;999.90;;;;;;;11.48;66.23;102569.34;10362128;28;20057;-77
2023/11/22 18:10:35;;;;;;;1999.90;999.90;;;;;;;11.35;66.63;102587.28;10361947;28;20413;-77
2023/11/22 18:15:47;;;;;;;1999.90;999.90;;;;;;;11.59;65.08;102561.13;10363068;28;20461;-77
2023/11/22 18:20:50;;;;;;;1999.90;999.90;;;;;;;11.68;66.39;102556.44;10378675;28;20081;-77
2023/11/22 18:25:52;;;;;;;1999.90;999.90;;;;;;;11.69;65.41;102565.16;10378486;28;20132;-77
2023/11/22 18:30:55;;;;;;;1999.90;999.90;;;;;;;11.52;66.24;102566.59;10378358;28;20408;-77
2023/11/22 18:35:57;;;;;;;1999.90;999.90;;;;;;;10.94;66.71;102558.84;10360989;28;20481;-78
2023/11/22 18:41:03;;;;;;;1999.90;999.90;;;;;;;11.14;66.94;102552.94;10360559;28;20096;-76
2023/11/22 18:46:06;;;;;;;1999.90;999.90;;;;;;;11.26;67.94;102542.97;10377911;28;20050;-77
2023/11/22 18:51:08;;;;;;;1999.90;999.90;;;;;;;11.47;66.21;102542.28;10360496;28;20046;-76
2023/11/22 18:56:11;;;;;;;1999.90;999.90;;;;;;;11.76;65.27;102522.06;10360622;28;20049;-77
2023/11/22 19:01:14;;;;;;;1999.90;999.90;;;;;;;11.51;65.68;102507.16;10377130;28;20045;-76
2023/11/22 19:06:18;;;;;;;1999.90;999.90;;;;;;;11.62;65.48;102498.94;10376868;28;20058;-76
2023/11/22 19:11:20;;;;;;;1999.90;999.90;;;;;;;10.82;67.45;102496.31;10376832;28;20046;-77
2023/11/22 19:16:23;;;;;;;1999.90;999.90;;;;;;;10.62;68.18;102494.28;10359730;28;20404;-78
2023/11/22 19:21:26;;;;;;;1999.90;999.90;;;;;;;11.21;67.24;102468.84;10376330;28;20076;-76
2023/11/22 19:26:32;;;;;;;1999.90;999.90;;;;;;;11.38;66.11;102473.53;10359146;28;20484;-77
2023/11/22 19:31:35;;;;;;;1999.90;999.90;;;;;;;10.80;68.75;102498.13;10343491;28;20045;-76
2023/11/22 19:36:37;;;;;;;1999.90;999.90;;;;;;;11.21;66.91;102490.69;10358746;28;20138;-77
2023/11/22 19:41:40;;;;;;;1999.90;999.90;;;;;;;11.46;66.50;102472.34;10375875;28;20046;-77
2023/11/22 19:46:42;;;;;;;1999.90;999.90;;;;;;;11.13;67.66;102469.13;10375464;28;20049;-76
2023/11/22 19:51:45;;;;;;;1999.90;999.90;;;;;;;10.71;67.17;102467.84;10375287;28;20474;-76
2023/11/22 19:56:47;;;;;;;1999.90;999.90;;;;;;;10.90;66.76;102464.63;10375344;28;20045;-77
2023/11/22 20:01:50;;;;;;;1999.90;999.90;;;;;;;10.81;67.92;102457.94;10374997;28;20046;-77
2023/11/22 20:06:52;;;;;;;1999.90;999.90;;;;;;;11.67;65.49;102468.13;10375002;28;20082;-77
2023/11/22 20:11:55;;;;;;;1999.90;999.90;;;;;;;11.02;67.63;102463.38;10374774;28;20046;-76
2023/11/22 20:16:58;;;;;;;1999.90;999.90;;;;;;;11.44;66.93;102457.59;10374124;28;20409;-77
2023/11/22 20:22:01;;;;;;;1999.90;999.90;;;;;;;11.60;66.09;102450.91;10374642;28;20054;-76
2023/11/22 20:27:05;;;;;;;1999.90;999.90;;;;;;;11.14;66.63;102431.50;10374477;28;20060;-76
2023/11/22 20:32:07;;;;;;;1999.90;999.90;;;;;;;11.05;68.82;102458.88;10374282;28;20504;-77
2023/11/22 20:37:10;;;;;;;1999.90;999.90;;;;;;;11.23;67.19;102440.81;10374274;28;20053;-76
2023/11/22 20:42:12;;;;;;;1999.90;999.90;;;;;;;11.53;67.05;102444.16;10374213;28;20050;-77
2023/11/22 20:47:15;;;;;;;1999.90;999.90;;;;;;;11.49;67.01;102443.41;10374157;28;20046;-77
2023/11/22 20:52:17;;;;;;;1999.90;999.90;;;;;;;11.32;68.66;102433.50;10373824;28;20474;-75
2023/11/22 20:57:19;;;;;;;1999.90;999.90;;;;;;;12.18;66.10;102436.59;10373912;28;20050;-76
2023/11/22 21:02:22;;;;;;;1999.90;999.90;;;;;;;11.73;68.15;102439.97;10356507;28;20077;-76
2023/11/22 21:07:24;;;;;;;1999.90;999.90;;;;;;;10.92;69.33;102450.56;10340500;28;20080;-77
2023/11/22 21:12:27;;;;;;;1999.90;999.90;;;;;;;11.83;67.22;102436.09;10373804;28;20049;-76
2023/11/22 21:17:30;;;;;;;1999.90;999.90;;;;;;;12.18;68.64;102423.47;10356113;28;20081;-77
2023/11/22 21:22:43;;;;;;;1999.90;999.90;;;;;;;11.65;68.79;102414.88;10373445;28;20053;-77
2023/11/22 21:27:46;;;;;;;1999.90;999.90;;;;;;;11.88;68.18;102421.03;10373222;28;20054;-77
2023/11/22 21:32:48;;;;;;;1999.90;999.90;;;;;;;11.23;70.76;102406.72;10379924;28;20112;-77
2023/11/22 21:37:52;;;;;;;1999.90;999.90;;;;;;;12.20;68.05;102404.09;10380552;28;20058;-77
2023/11/22 21:42:54;;;;;;;1999.90;999.90;;;;;;;12.31;68.71;102393.19;10380403;28;20057;-77
2023/11/22 21:47:57;;;;;;;1999.90;999.90;;;;;;;11.92;70.08;102392.94;10380444;28;20045;-77
2023/11/22 21:53:02;;;;;;;1999.90;999.90;;;;;;;11.90;70.06;102385.06;10379978;28;20108;-77
2023/11/22 21:58:04;;;;;;;1999.90;999.90;;;;;;;11.98;71.28;102382.22;10379718;28;20164;-77
2023/11/22 22:03:06;;;;;;;1999.90;999.90;;;;;;;11.87;71.60;102375.56;10346563;28;20046;-77